sensor_id;sensor_type;location;lat;lon;timestamp;pressure;altitude;pressure_sealevel;temperature;humidity
74529;BME280;63009;52.584;5.932;2024-03-25T00:01:06;49983.91;;;-144.39;74.16
74529;BME280;63009;52.584;5.932;2024-03-25T00:03:31;49971.84;;;-144.39;74.85
74529;BME280;63009;52.584;5.932;2024-03-25T00:05:57;49967.84;;;-144.39;75.79
74529;BME280;63009;52.584;5.932;2024-03-25T00:08:22;49969.84;;;-144.39;75.91
74529;BME280;63009;52.584;5.932;2024-03-25T00:10:48;49939.78;;;-144.39;75.46
74529;BME280;63009;52.584;5.932;2024-03-25T00:13:13;49943.78;;;-144.39;75.04
74529;BME280;63009;52.584;5.932;2024-03-25T00:15:38;49917.72;;;-144.39;75.34
74529;BME280;63009;52.584;5.932;2024-03-25T00:18:04;49981.88;;;-144.39;75.62
74529;BME280;63009;52.584;5.932;2024-03-25T00:20:30;49951.81;;;-144.39;75.36
74529;BME280;63009;52.584;5.932;2024-03-25T00:22:55;49937.75;;;-144.39;75.23
74529;BME280;63009;52.584;5.932;2024-03-25T00:25:20;49991.91;;;-144.39;75.32
74529;BME280;63009;52.584;5.932;2024-03-25T00:27:46;49927.75;;;-144.39;75.17
74529;BME280;63009;52.584;5.932;2024-03-25T00:30:12;49949.78;;;-144.39;75.02
74529;BME280;63009;52.584;5.932;2024-03-25T00:32:37;49939.78;;;-144.39;75.35
74529;BME280;63009;52.584;5.932;2024-03-25T00:35:03;49955.81;;;-144.39;74.85
74529;BME280;63009;52.584;5.932;2024-03-25T00:37:29;49953.81;;;-144.39;74.70
74529;BME280;63009;52.584;5.932;2024-03-25T00:39:54;49937.75;;;-144.39;74.65
74529;BME280;63009;52.584;5.932;2024-03-25T00:42:20;49963.84;;;-144.39;74.24
74529;BME280;63009;52.584;5.932;2024-03-25T00:44:45;49959.81;;;-144.39;73.99
74529;BME280;63009;52.584;5.932;2024-03-25T00:47:11;49949.78;;;-144.39;73.54
74529;BME280;63009;52.584;5.932;2024-03-25T00:49:36;49953.81;;;-144.39;73.40
74529;BME280;63009;52.584;5.932;2024-03-25T00:52:02;49905.69;;;-144.39;73.68
74529;BME280;63009;52.584;5.932;2024-03-25T00:54:27;49961.84;;;-144.39;73.52
74529;BME280;63009;52.584;5.932;2024-03-25T00:56:53;49969.84;;;-144.39;73.68
74529;BME280;63009;52.584;5.932;2024-03-25T00:59:18;49969.84;;;-144.39;73.70
74529;BME280;63009;52.584;5.932;2024-03-25T01:01:44;49945.78;;;-144.39;73.30
74529;BME280;63009;52.584;5.932;2024-03-25T01:04:09;49967.84;;;-144.39;73.56
74529;BME280;63009;52.584;5.932;2024-03-25T01:06:35;49957.81;;;-144.39;73.55
74529;BME280;63009;52.584;5.932;2024-03-25T01:09:00;49953.81;;;-144.39;72.99
74529;BME280;63009;52.584;5.932;2024-03-25T01:11:26;49955.81;;;-144.39;73.25
74529;BME280;63009;52.584;5.932;2024-03-25T01:13:51;49941.78;;;-144.39;73.49
74529;BME280;63009;52.584;5.932;2024-03-25T01:16:17;49967.84;;;-144.39;72.72
74529;BME280;63009;52.584;5.932;2024-03-25T01:18:42;49931.75;;;-144.39;72.60
74529;BME280;63009;52.584;5.932;2024-03-25T01:21:08;49969.84;;;-144.39;72.25
74529;BME280;63009;52.584;5.932;2024-03-25T01:23:33;49941.78;;;-144.39;72.02
74529;BME280;63009;52.584;5.932;2024-03-25T01:25:58;49971.84;;;-144.39;72.58
74529;BME280;63009;52.584;5.932;2024-03-25T01:28:24;49957.81;;;-144.39;72.66
74529;BME280;63009;52.584;5.932;2024-03-25T01:30:49;49955.81;;;-144.39;72.55
74529;BME280;63009;52.584;5.932;2024-03-25T01:33:15;49943.78;;;-144.39;72.63
74529;BME280;63009;52.584;5.932;2024-03-25T01:35:40;49973.88;;;-144.39;73.09
74529;BME280;63009;52.584;5.932;2024-03-25T01:38:06;49937.75;;;-144.39;73.10
74529;BME280;63009;52.584;5.932;2024-03-25T01:40:31;49947.78;;;-144.39;73.08
74529;BME280;63009;52.584;5.932;2024-03-25T01:43:01;49977.88;;;-144.39;73.08
74529;BME280;63009;52.584;5.932;2024-03-25T01:45:31;49957.81;;;-144.39;73.08
74529;BME280;63009;52.584;5.932;2024-03-25T01:48:09;49975.88;;;-144.39;72.60
74529;BME280;63009;52.584;5.932;2024-03-25T01:50:39;49967.84;;;-144.39;72.36
74529;BME280;63009;52.584;5.932;2024-03-25T01:53:06;49971.84;;;-144.39;72.22
74529;BME280;63009;52.584;5.932;2024-03-25T01:55:34;49957.81;;;-144.39;71.87
74529;BME280;63009;52.584;5.932;2024-03-25T01:58:00;49915.69;;;-144.39;71.99
74529;BME280;63009;52.584;5.932;2024-03-25T02:00:26;49945.78;;;-144.39;72.28
74529;BME280;63009;52.584;5.932;2024-03-25T02:02:53;49971.84;;;-144.39;71.96
74529;BME280;63009;52.584;5.932;2024-03-25T02:05:19;49951.81;;;-144.39;72.32
74529;BME280;63009;52.584;5.932;2024-03-25T02:07:44;49935.75;;;-144.39;72.72
74529;BME280;63009;52.584;5.932;2024-03-25T02:10:11;49919.72;;;-144.39;73.14
74529;BME280;63009;52.584;5.932;2024-03-25T02:12:40;49923.72;;;-144.39;73.69
74529;BME280;63009;52.584;5.932;2024-03-25T02:15:07;49951.81;;;-144.39;74.16
74529;BME280;63009;52.584;5.932;2024-03-25T02:17:33;49931.75;;;-144.39;75.00
74529;BME280;63009;52.584;5.932;2024-03-25T02:19:58;49963.84;;;-144.39;75.74
74529;BME280;63009;52.584;5.932;2024-03-25T02:22:24;49929.75;;;-144.39;76.24
74529;BME280;63009;52.584;5.932;2024-03-25T02:24:51;49947.78;;;-144.39;76.52
74529;BME280;63009;52.584;5.932;2024-03-25T02:27:17;49947.78;;;-144.39;76.84
74529;BME280;63009;52.584;5.932;2024-03-25T02:29:43;49963.84;;;-144.39;77.06
74529;BME280;63009;52.584;5.932;2024-03-25T02:32:10;49959.81;;;-144.39;77.31
74529;BME280;63009;52.584;5.932;2024-03-25T02:34:39;49951.81;;;-144.39;76.98
74529;BME280;63009;52.584;5.932;2024-03-25T02:37:06;49943.78;;;-144.39;76.83
74529;BME280;63009;52.584;5.932;2024-03-25T02:39:32;49947.78;;;-144.39;76.98
74529;BME280;63009;52.584;5.932;2024-03-25T02:41:59;49947.78;;;-144.39;76.87
74529;BME280;63009;52.584;5.932;2024-03-25T02:44:24;49927.75;;;-144.39;76.29
74529;BME280;63009;52.584;5.932;2024-03-25T02:46:50;49937.75;;;-144.39;76.27
74529;BME280;63009;52.584;5.932;2024-03-25T02:49:16;49963.84;;;-144.39;75.79
74529;BME280;63009;52.584;5.932;2024-03-25T02:51:41;49941.78;;;-144.39;75.76
74529;BME280;63009;52.584;5.932;2024-03-25T02:54:07;49961.84;;;-144.39;75.65
74529;BME280;63009;52.584;5.932;2024-03-25T02:56:35;49949.78;;;-144.39;75.29
74529;BME280;63009;52.584;5.932;2024-03-25T02:59:01;49921.72;;;-144.39;74.97
74529;BME280;63009;52.584;5.932;2024-03-25T03:01:26;49969.84;;;-144.39;74.90
74529;BME280;63009;52.584;5.932;2024-03-25T03:03:52;49959.81;;;-144.39;74.67
74529;BME280;63009;52.584;5.932;2024-03-25T03:06:17;49989.91;;;-144.39;74.38
74529;BME280;63009;52.584;5.932;2024-03-25T03:08:44;49949.78;;;-144.39;74.61
74529;BME280;63009;52.584;5.932;2024-03-25T03:11:09;49947.78;;;-144.39;74.35
74529;BME280;63009;52.584;5.932;2024-03-25T03:13:35;49935.75;;;-144.39;74.29
74529;BME280;63009;52.584;5.932;2024-03-25T03:16:00;49953.81;;;-144.39;74.60
74529;BME280;63009;52.584;5.932;2024-03-25T03:18:25;49987.91;;;-144.39;74.42
74529;BME280;63009;52.584;5.932;2024-03-25T03:20:51;49975.88;;;-144.39;74.60
74529;BME280;63009;52.584;5.932;2024-03-25T03:23:16;49943.78;;;-144.39;74.41
74529;BME280;63009;52.584;5.932;2024-03-25T03:25:42;49949.78;;;-144.39;74.50
74529;BME280;63009;52.584;5.932;2024-03-25T03:28:08;49977.88;;;-144.39;74.31
74529;BME280;63009;52.584;5.932;2024-03-25T03:30:33;49931.75;;;-144.39;74.62
74529;BME280;63009;52.584;5.932;2024-03-25T03:32:59;49957.81;;;-144.39;74.64
74529;BME280;63009;52.584;5.932;2024-03-25T03:35:24;49969.84;;;-144.39;74.39
74529;BME280;63009;52.584;5.932;2024-03-25T03:37:49;49987.91;;;-144.39;73.95
74529;BME280;63009;52.584;5.932;2024-03-25T03:40:15;49971.84;;;-144.39;73.69
74529;BME280;63009;52.584;5.932;2024-03-25T03:42:40;49971.84;;;-144.39;73.28
74529;BME280;63009;52.584;5.932;2024-03-25T03:45:06;49923.72;;;-144.39;73.51
74529;BME280;63009;52.584;5.932;2024-03-25T03:47:32;49943.78;;;-144.39;73.21
74529;BME280;63009;52.584;5.932;2024-03-25T03:49:57;49971.84;;;-144.39;73.28
74529;BME280;63009;52.584;5.932;2024-03-25T03:52:23;49945.78;;;-144.39;73.09
74529;BME280;63009;52.584;5.932;2024-03-25T03:54:48;49943.78;;;-144.39;72.78
74529;BME280;63009;52.584;5.932;2024-03-25T03:57:14;49947.78;;;-144.39;73.05
74529;BME280;63009;52.584;5.932;2024-03-25T03:59:39;49943.78;;;-144.39;73.33
74529;BME280;63009;52.584;5.932;2024-03-25T04:02:05;49949.78;;;-144.39;73.38
74529;BME280;63009;52.584;5.932;2024-03-25T04:04:30;49935.75;;;-144.39;73.48
74529;BME280;63009;52.584;5.932;2024-03-25T04:06:55;49975.88;;;-144.39;74.02
74529;BME280;63009;52.584;5.932;2024-03-25T04:09:21;49931.75;;;-144.39;74.31
74529;BME280;63009;52.584;5.932;2024-03-25T04:11:49;49935.75;;;-144.39;74.25
74529;BME280;63009;52.584;5.932;2024-03-25T04:14:14;49989.91;;;-144.39;74.13
74529;BME280;63009;52.584;5.932;2024-03-25T04:16:39;49969.84;;;-144.39;73.80
74529;BME280;63009;52.584;5.932;2024-03-25T04:19:05;49973.88;;;-144.39;73.93
74529;BME280;63009;52.584;5.932;2024-03-25T04:21:30;49953.81;;;-144.39;73.77
74529;BME280;63009;52.584;5.932;2024-03-25T04:23:55;49945.78;;;-144.39;73.48
74529;BME280;63009;52.584;5.932;2024-03-25T04:26:21;49971.84;;;-144.39;73.66
74529;BME280;63009;52.584;5.932;2024-03-25T04:28:46;49977.88;;;-144.39;73.63
74529;BME280;63009;52.584;5.932;2024-03-25T04:31:12;49949.78;;;-144.39;73.44
74529;BME280;63009;52.584;5.932;2024-03-25T04:33:37;49955.81;;;-144.39;73.46
74529;BME280;63009;52.584;5.932;2024-03-25T04:36:03;49915.69;;;-144.39;73.57
74529;BME280;63009;52.584;5.932;2024-03-25T04:38:29;49923.72;;;-144.39;73.76
74529;BME280;63009;52.584;5.932;2024-03-25T04:40:54;49937.75;;;-144.39;74.11
74529;BME280;63009;52.584;5.932;2024-03-25T04:43:19;49961.84;;;-144.39;73.51
74529;BME280;63009;52.584;5.932;2024-03-25T04:45:45;49959.81;;;-144.39;73.74
74529;BME280;63009;52.584;5.932;2024-03-25T04:48:11;49949.78;;;-144.39;73.65
74529;BME280;63009;52.584;5.932;2024-03-25T04:50:36;49947.78;;;-144.39;73.46
74529;BME280;63009;52.584;5.932;2024-03-25T04:53:02;49973.88;;;-144.39;73.26
74529;BME280;63009;52.584;5.932;2024-03-25T04:55:27;49959.81;;;-144.39;73.29
74529;BME280;63009;52.584;5.932;2024-03-25T04:57:53;49955.81;;;-144.39;73.16
74529;BME280;63009;52.584;5.932;2024-03-25T05:00:18;49979.88;;;-144.39;72.84
74529;BME280;63009;52.584;5.932;2024-03-25T05:02:44;49943.78;;;-144.39;73.32
74529;BME280;63009;52.584;5.932;2024-03-25T05:05:09;49949.78;;;-144.39;73.87
74529;BME280;63009;52.584;5.932;2024-03-25T05:07:35;49965.84;;;-144.39;74.18
74529;BME280;63009;52.584;5.932;2024-03-25T05:10:00;49957.81;;;-144.39;74.37
74529;BME280;63009;52.584;5.932;2024-03-25T05:12:26;49901.66;;;-144.39;74.38
74529;BME280;63009;52.584;5.932;2024-03-25T05:14:58;49961.84;;;-144.39;75.52
74529;BME280;63009;52.584;5.932;2024-03-25T05:17:24;49929.75;;;-144.39;75.76
74529;BME280;63009;52.584;5.932;2024-03-25T05:19:49;49947.78;;;-144.39;75.65
74529;BME280;63009;52.584;5.932;2024-03-25T05:22:16;49927.75;;;-144.39;75.79
74529;BME280;63009;52.584;5.932;2024-03-25T05:24:41;49995.94;;;-144.39;76.19
74529;BME280;63009;52.584;5.932;2024-03-25T05:27:06;49953.81;;;-144.39;76.23
74529;BME280;63009;52.584;5.932;2024-03-25T05:29:32;49925.72;;;-144.39;76.53
74529;BME280;63009;52.584;5.932;2024-03-25T05:32:01;49945.78;;;-144.39;76.17
74529;BME280;63009;52.584;5.932;2024-03-25T05:34:27;49945.78;;;-144.39;75.81
74529;BME280;63009;52.584;5.932;2024-03-25T05:36:53;49939.78;;;-144.39;76.62
74529;BME280;63009;52.584;5.932;2024-03-25T05:39:19;49949.78;;;-144.39;76.72
74529;BME280;63009;52.584;5.932;2024-03-25T05:41:45;49967.84;;;-144.39;76.51
74529;BME280;63009;52.584;5.932;2024-03-25T05:44:11;49959.81;;;-144.39;76.37
74529;BME280;63009;52.584;5.932;2024-03-25T05:46:36;49933.75;;;-144.39;76.65
74529;BME280;63009;52.584;5.932;2024-03-25T05:49:03;49949.78;;;-144.39;77.02
74529;BME280;63009;52.584;5.932;2024-03-25T05:51:30;49941.78;;;-144.39;76.49
74529;BME280;63009;52.584;5.932;2024-03-25T05:53:55;49939.78;;;-144.39;77.15
74529;BME280;63009;52.584;5.932;2024-03-25T05:56:21;49957.81;;;-144.39;76.97
74529;BME280;63009;52.584;5.932;2024-03-25T05:58:46;49989.91;;;-144.39;76.78
74529;BME280;63009;52.584;5.932;2024-03-25T06:01:12;49965.84;;;-144.39;76.93
74529;BME280;63009;52.584;5.932;2024-03-25T06:03:37;49975.88;;;-144.39;76.64
74529;BME280;63009;52.584;5.932;2024-03-25T06:06:03;49943.78;;;-144.39;76.46
74529;BME280;63009;52.584;5.932;2024-03-25T06:08:28;49955.81;;;-144.39;76.48
74529;BME280;63009;52.584;5.932;2024-03-25T06:10:54;49959.81;;;-144.39;76.09
74529;BME280;63009;52.584;5.932;2024-03-25T06:13:20;49979.88;;;-144.39;76.05
74529;BME280;63009;52.584;5.932;2024-03-25T06:15:45;49941.78;;;-144.39;76.32
74529;BME280;63009;52.584;5.932;2024-03-25T06:18:11;49947.78;;;-144.39;76.42
74529;BME280;63009;52.584;5.932;2024-03-25T06:20:36;49969.84;;;-144.39;76.76
74529;BME280;63009;52.584;5.932;2024-03-25T06:23:02;49955.81;;;-144.39;77.23
74529;BME280;63009;52.584;5.932;2024-03-25T06:25:28;49961.84;;;-144.39;77.17
74529;BME280;63009;52.584;5.932;2024-03-25T06:27:54;49951.81;;;-144.39;77.45
74529;BME280;63009;52.584;5.932;2024-03-25T06:30:20;49963.84;;;-144.39;77.17
74529;BME280;63009;52.584;5.932;2024-03-25T06:33:04;49967.84;;;-144.39;77.05
74529;BME280;63009;52.584;5.932;2024-03-25T06:35:48;49969.84;;;-144.39;76.71
74529;BME280;63009;52.584;5.932;2024-03-25T06:38:13;49951.81;;;-144.39;76.80
74529;BME280;63009;52.584;5.932;2024-03-25T06:40:39;49979.88;;;-144.39;76.90
74529;BME280;63009;52.584;5.932;2024-03-25T06:43:04;49967.84;;;-144.39;76.69
74529;BME280;63009;52.584;5.932;2024-03-25T06:45:30;49967.84;;;-144.39;76.59
74529;BME280;63009;52.584;5.932;2024-03-25T06:47:56;49953.81;;;-144.39;76.49
74529;BME280;63009;52.584;5.932;2024-03-25T06:50:22;49953.81;;;-144.39;76.34
74529;BME280;63009;52.584;5.932;2024-03-25T06:52:48;49955.81;;;-144.39;75.96
74529;BME280;63009;52.584;5.932;2024-03-25T06:55:14;49957.81;;;-144.39;75.82
74529;BME280;63009;52.584;5.932;2024-03-25T06:57:42;49943.78;;;-144.39;75.77
74529;BME280;63009;52.584;5.932;2024-03-25T07:00:08;49953.81;;;-144.39;75.08
74529;BME280;63009;52.584;5.932;2024-03-25T07:02:41;49939.78;;;-144.39;74.78
74529;BME280;63009;52.584;5.932;2024-03-25T07:05:06;49979.88;;;-144.39;73.95
74529;BME280;63009;52.584;5.932;2024-03-25T07:07:32;49923.72;;;-144.39;72.98
74529;BME280;63009;52.584;5.932;2024-03-25T07:09:59;49947.78;;;-144.39;72.44
74529;BME280;63009;52.584;5.932;2024-03-25T07:12:24;49977.88;;;-144.39;71.77
74529;BME280;63009;52.584;5.932;2024-03-25T07:14:49;49973.88;;;-144.39;71.56
74529;BME280;63009;52.584;5.932;2024-03-25T07:17:15;49947.78;;;-144.39;70.55
74529;BME280;63009;52.584;5.932;2024-03-25T07:19:40;49935.75;;;-144.39;69.82
74529;BME280;63009;52.584;5.932;2024-03-25T07:22:06;49971.84;;;-144.39;69.24
74529;BME280;63009;52.584;5.932;2024-03-25T07:24:32;49923.72;;;-144.39;68.10
74529;BME280;63009;52.584;5.932;2024-03-25T07:26:57;49929.75;;;-144.39;67.53
74529;BME280;63009;52.584;5.932;2024-03-25T07:29:22;49931.75;;;-144.39;67.48
74529;BME280;63009;52.584;5.932;2024-03-25T07:31:49;49929.75;;;-144.39;67.18
74529;BME280;63009;52.584;5.932;2024-03-25T07:34:15;49929.75;;;-144.39;66.16
74529;BME280;63009;52.584;5.932;2024-03-25T07:36:40;49953.81;;;-144.39;65.10
74529;BME280;63009;52.584;5.932;2024-03-25T07:39:05;49969.84;;;-144.39;65.00
74529;BME280;63009;52.584;5.932;2024-03-25T07:41:31;49905.69;;;-144.39;63.67
74529;BME280;63009;52.584;5.932;2024-03-25T07:43:56;49923.72;;;-144.39;62.76
74529;BME280;63009;52.584;5.932;2024-03-25T07:46:22;49971.84;;;-144.39;62.83
74529;BME280;63009;52.584;5.932;2024-03-25T07:48:47;49923.72;;;-144.39;61.65
74529;BME280;63009;52.584;5.932;2024-03-25T07:51:13;49953.81;;;-144.39;61.11
74529;BME280;63009;52.584;5.932;2024-03-25T07:53:38;49931.75;;;-144.39;60.81
74529;BME280;63009;52.584;5.932;2024-03-25T07:56:04;49917.72;;;-144.39;60.50
74529;BME280;63009;52.584;5.932;2024-03-25T07:58:30;49915.69;;;-144.39;60.13
74529;BME280;63009;52.584;5.932;2024-03-25T08:00:58;49913.69;;;-144.39;59.76
74529;BME280;63009;52.584;5.932;2024-03-25T08:03:23;49941.78;;;-144.39;59.48
74529;BME280;63009;52.584;5.932;2024-03-25T08:05:50;49953.81;;;-144.39;58.24
74529;BME280;63009;52.584;5.932;2024-03-25T08:08:16;49949.78;;;-144.39;57.90
74529;BME280;63009;52.584;5.932;2024-03-25T08:10:41;49937.75;;;-144.39;56.62
74529;BME280;63009;52.584;5.932;2024-03-25T08:13:06;49967.84;;;-144.39;56.93
74529;BME280;63009;52.584;5.932;2024-03-25T08:15:32;49967.84;;;-144.39;56.31
74529;BME280;63009;52.584;5.932;2024-03-25T08:17:57;49931.75;;;-144.39;55.25
74529;BME280;63009;52.584;5.932;2024-03-25T08:20:22;49911.69;;;-144.39;55.08
74529;BME280;63009;52.584;5.932;2024-03-25T08:22:51;49939.78;;;-144.39;54.97
74529;BME280;63009;52.584;5.932;2024-03-25T08:25:19;49919.72;;;-144.39;52.76
74529;BME280;63009;52.584;5.932;2024-03-25T08:27:44;49947.78;;;-144.39;52.51
74529;BME280;63009;52.584;5.932;2024-03-25T08:30:10;49913.69;;;-144.39;52.25
74529;BME280;63009;52.584;5.932;2024-03-25T08:32:35;49927.75;;;-144.39;53.08
74529;BME280;63009;52.584;5.932;2024-03-25T08:35:01;49935.75;;;-144.39;51.62
74529;BME280;63009;52.584;5.932;2024-03-25T08:37:26;49925.72;;;-144.39;51.49
74529;BME280;63009;52.584;5.932;2024-03-25T08:39:51;49925.72;;;-144.39;50.35
74529;BME280;63009;52.584;5.932;2024-03-25T08:42:17;49931.75;;;-144.39;49.95
74529;BME280;63009;52.584;5.932;2024-03-25T08:44:42;49919.72;;;-144.39;49.66
74529;BME280;63009;52.584;5.932;2024-03-25T08:47:08;49901.66;;;-144.39;48.43
74529;BME280;63009;52.584;5.932;2024-03-25T08:49:33;49921.72;;;-144.39;49.26
74529;BME280;63009;52.584;5.932;2024-03-25T08:51:58;49907.69;;;-144.39;48.12
74529;BME280;63009;52.584;5.932;2024-03-25T08:54:26;49933.75;;;-144.39;48.04
74529;BME280;63009;52.584;5.932;2024-03-25T08:56:51;49937.75;;;-144.39;48.19
74529;BME280;63009;52.584;5.932;2024-03-25T08:59:17;49935.75;;;-144.39;49.27
74529;BME280;63009;52.584;5.932;2024-03-25T09:01:42;49939.78;;;-144.39;46.51
74529;BME280;63009;52.584;5.932;2024-03-25T09:04:08;49919.72;;;-144.39;47.13
74529;BME280;63009;52.584;5.932;2024-03-25T09:06:34;49939.78;;;-144.39;46.37
74529;BME280;63009;52.584;5.932;2024-03-25T09:09:01;49913.69;;;-144.39;47.20
74529;BME280;63009;52.584;5.932;2024-03-25T09:11:45;49927.75;;;-144.39;48.58
74529;BME280;63009;52.584;5.932;2024-03-25T09:14:10;49939.78;;;-144.39;48.18
74529;BME280;63009;52.584;5.932;2024-03-25T09:16:37;49911.69;;;-144.39;49.38
74529;BME280;63009;52.584;5.932;2024-03-25T09:19:02;49905.69;;;-144.39;50.61
74529;BME280;63009;52.584;5.932;2024-03-25T09:21:28;49905.69;;;-144.39;48.76
74529;BME280;63009;52.584;5.932;2024-03-25T09:23:55;49933.75;;;-144.39;49.22
74529;BME280;63009;52.584;5.932;2024-03-25T09:26:21;49927.75;;;-144.39;47.82
74529;BME280;63009;52.584;5.932;2024-03-25T09:28:47;49907.69;;;-144.39;47.48
74529;BME280;63009;52.584;5.932;2024-03-25T09:31:12;49935.75;;;-144.39;46.99
74529;BME280;63009;52.584;5.932;2024-03-25T09:33:38;49951.81;;;-144.39;46.35
74529;BME280;63009;52.584;5.932;2024-03-25T09:36:04;49931.75;;;-144.39;47.14
74529;BME280;63009;52.584;5.932;2024-03-25T09:38:29;49921.72;;;-144.39;48.28
74529;BME280;63009;52.584;5.932;2024-03-25T09:40:55;49937.75;;;-144.39;46.87
74529;BME280;63009;52.584;5.932;2024-03-25T09:43:32;49919.72;;;-144.39;49.07
74529;BME280;63009;52.584;5.932;2024-03-25T09:46:02;49935.75;;;-144.39;48.08
74529;BME280;63009;52.584;5.932;2024-03-25T09:48:27;49951.81;;;-144.39;47.41
74529;BME280;63009;52.584;5.932;2024-03-25T09:50:55;49937.75;;;-144.39;49.61
74529;BME280;63009;52.584;5.932;2024-03-25T09:53:21;49907.69;;;-144.39;49.18
74529;BME280;63009;52.584;5.932;2024-03-25T09:55:46;49903.66;;;-144.39;48.54
74529;BME280;63009;52.584;5.932;2024-03-25T09:58:14;49899.66;;;-144.39;47.90
74529;BME280;63009;52.584;5.932;2024-03-25T10:00:40;49901.66;;;-144.39;46.97
74529;BME280;63009;52.584;5.932;2024-03-25T10:03:06;49915.69;;;-144.39;48.14
74529;BME280;63009;52.584;5.932;2024-03-25T10:05:32;49897.66;;;-144.39;45.46
74529;BME280;63009;52.584;5.932;2024-03-25T10:07:58;49933.75;;;-144.39;44.62
74529;BME280;63009;52.584;5.932;2024-03-25T10:10:23;49957.81;;;-144.39;45.27
74529;BME280;63009;52.584;5.932;2024-03-25T10:12:49;49945.78;;;-144.39;43.85
74529;BME280;63009;52.584;5.932;2024-03-25T10:15:17;49931.75;;;-144.39;44.16
74529;BME280;63009;52.584;5.932;2024-03-25T10:17:42;49955.81;;;-144.39;43.19
74529;BME280;63009;52.584;5.932;2024-03-25T10:20:13;49975.88;;;-144.39;42.67
74529;BME280;63009;52.584;5.932;2024-03-25T10:22:42;49927.75;;;-144.39;45.54
74529;BME280;63009;52.584;5.932;2024-03-25T10:25:19;49921.72;;;-144.39;46.95
74529;BME280;63009;52.584;5.932;2024-03-25T10:27:56;49891.63;;;-144.39;45.33
74529;BME280;63009;52.584;5.932;2024-03-25T10:30:22;49943.78;;;-144.39;45.46
74529;BME280;63009;52.584;5.932;2024-03-25T10:33:03;49937.75;;;-144.39;44.24
74529;BME280;63009;52.584;5.932;2024-03-25T10:35:31;49939.78;;;-144.39;45.10
74529;BME280;63009;52.584;5.932;2024-03-25T10:38:04;49925.72;;;-144.39;42.51
74529;BME280;63009;52.584;5.932;2024-03-25T10:40:36;49911.69;;;-144.39;44.86
74529;BME280;63009;52.584;5.932;2024-03-25T10:43:07;49927.75;;;-144.39;45.49
74529;BME280;63009;52.584;5.932;2024-03-25T10:45:45;49929.75;;;-144.39;44.43
74529;BME280;63009;52.584;5.932;2024-03-25T10:48:20;49909.69;;;-144.39;45.22
74529;BME280;63009;52.584;5.932;2024-03-25T10:50:47;49953.81;;;-144.39;44.52
74529;BME280;63009;52.584;5.932;2024-03-25T10:53:14;49951.81;;;-144.39;43.37
74529;BME280;63009;52.584;5.932;2024-03-25T10:55:42;49897.66;;;-144.39;44.73
74529;BME280;63009;52.584;5.932;2024-03-25T10:58:10;49919.72;;;-144.39;43.60
74529;BME280;63009;52.584;5.932;2024-03-25T11:00:37;49927.75;;;-144.39;44.42
74529;BME280;63009;52.584;5.932;2024-03-25T11:03:02;49899.66;;;-144.39;45.21
74529;BME280;63009;52.584;5.932;2024-03-25T11:05:28;49913.69;;;-144.39;43.79
74529;BME280;63009;52.584;5.932;2024-03-25T11:07:54;49911.69;;;-144.39;44.23
74529;BME280;63009;52.584;5.932;2024-03-25T11:10:29;49925.72;;;-144.39;43.89
74529;BME280;63009;52.584;5.932;2024-03-25T11:12:54;49923.72;;;-144.39;45.24
74529;BME280;63009;52.584;5.932;2024-03-25T11:15:20;49951.81;;;-144.39;45.96
74529;BME280;63009;52.584;5.932;2024-03-25T11:17:50;49955.81;;;-144.39;46.79
74529;BME280;63009;52.584;5.932;2024-03-25T11:20:16;49923.72;;;-144.39;46.73
74529;BME280;63009;52.584;5.932;2024-03-25T11:22:52;49927.75;;;-144.39;48.14
74529;BME280;63009;52.584;5.932;2024-03-25T11:25:20;49917.72;;;-144.39;44.42
74529;BME280;63009;52.584;5.932;2024-03-25T11:27:47;49927.75;;;-144.39;45.89
74529;BME280;63009;52.584;5.932;2024-03-25T11:30:16;49947.78;;;-144.39;45.34
74529;BME280;63009;52.584;5.932;2024-03-25T11:32:54;49935.75;;;-144.39;44.43
74529;BME280;63009;52.584;5.932;2024-03-25T11:35:21;49917.72;;;-144.39;43.04
74529;BME280;63009;52.584;5.932;2024-03-25T11:37:46;49881.59;;;-144.39;44.12
74529;BME280;63009;52.584;5.932;2024-03-25T11:40:13;49927.75;;;-144.39;45.52
74529;BME280;63009;52.584;5.932;2024-03-25T11:42:42;49911.69;;;-144.39;46.26
74529;BME280;63009;52.584;5.932;2024-03-25T11:45:14;49915.69;;;-144.39;46.69
74529;BME280;63009;52.584;5.932;2024-03-25T11:47:42;49951.81;;;-144.39;45.94
74529;BME280;63009;52.584;5.932;2024-03-25T11:50:08;49879.59;;;-144.39;44.56
74529;BME280;63009;52.584;5.932;2024-03-25T11:52:34;49919.72;;;-144.39;44.29
74529;BME280;63009;52.584;5.932;2024-03-25T11:54:59;49909.69;;;-144.39;46.83
74529;BME280;63009;52.584;5.932;2024-03-25T11:57:24;49921.72;;;-144.39;45.96
74529;BME280;63009;52.584;5.932;2024-03-25T11:59:50;49919.72;;;-144.39;42.76
74529;BME280;63009;52.584;5.932;2024-03-25T12:02:16;49903.66;;;-144.39;43.08
74529;BME280;63009;52.584;5.932;2024-03-25T12:04:45;49949.78;;;-144.39;43.85
74529;BME280;63009;52.584;5.932;2024-03-25T12:07:13;49895.66;;;-144.39;44.93
74529;BME280;63009;52.584;5.932;2024-03-25T12:09:39;49911.69;;;-144.39;42.73
74529;BME280;63009;52.584;5.932;2024-03-25T12:12:24;49923.72;;;-144.39;41.25
74529;BME280;63009;52.584;5.932;2024-03-25T12:14:50;49931.75;;;-144.39;41.51
74529;BME280;63009;52.584;5.932;2024-03-25T12:17:17;49887.63;;;-144.39;43.70
74529;BME280;63009;52.584;5.932;2024-03-25T12:19:43;49911.69;;;-144.39;44.80
74529;BME280;63009;52.584;5.932;2024-03-25T12:22:08;49891.63;;;-144.39;45.36
74529;BME280;63009;52.584;5.932;2024-03-25T12:24:34;49903.66;;;-144.39;42.75
74529;BME280;63009;52.584;5.932;2024-03-25T12:27:00;49923.72;;;-144.39;39.58
74529;BME280;63009;52.584;5.932;2024-03-25T12:29:26;49919.72;;;-144.39;40.55
74529;BME280;63009;52.584;5.932;2024-03-25T12:31:57;49905.69;;;-144.39;38.77
74529;BME280;63009;52.584;5.932;2024-03-25T12:34:26;49941.78;;;-144.39;38.04
74529;BME280;63009;52.584;5.932;2024-03-25T12:36:51;49881.59;;;-144.39;40.60